createdAt,value
2023-04-09T00:03:46.185Z,48.80
2023-04-09T00:07:53.886Z,59.20
2023-04-09T00:16:35.544Z,58.80
2023-04-09T00:21:19.782Z,59.30
2023-04-09T00:25:44.321Z,60.50
2023-04-09T00:30:28.853Z,46.90
2023-04-09T00:34:45.796Z,58.30
2023-04-09T00:38:58.143Z,64.90
2023-04-09T00:43:26.694Z,61.20
2023-04-09T00:47:31.185Z,56.70
2023-04-09T00:51:44.320Z,55.60
2023-04-09T00:55:51.531Z,63.40
2023-04-09T01:00:04.701Z,61.00
2023-04-09T01:04:36.455Z,64.30
2023-04-09T01:09:30.544Z,58.20
2023-04-09T01:13:47.866Z,56.50
2023-04-09T01:18:19.033Z,62.40
2023-04-09T01:22:41.431Z,60.10
2023-04-09T01:27:11.034Z,56.50
2023-04-09T01:31:41.818Z,49.20
2023-04-09T01:35:35.096Z,54.80
2023-04-09T01:40:19.137Z,53.30
2023-04-09T01:44:40.404Z,45.70
2023-04-09T01:49:10.967Z,38.50
2023-04-09T01:53:40.031Z,47.30
2023-04-09T01:58:06.059Z,52.10
2023-04-09T02:02:24.585Z,49.30
2023-04-09T02:11:01.068Z,46.70
2023-04-09T02:15:45.074Z,48.60
2023-04-09T02:20:18.926Z,55.80
2023-04-09T02:24:58.355Z,45.80
2023-04-09T02:29:26.383Z,56.70
2023-04-09T02:33:52.129Z,42.90
2023-04-09T02:38:16.588Z,50.10
2023-04-09T02:42:29.498Z,48.20
2023-04-09T02:47:16.609Z,44.10
2023-04-09T02:51:58.446Z,58.20
2023-04-09T02:56:43.489Z,52.70
2023-04-09T03:01:48.071Z,56.20
2023-04-09T03:05:56.403Z,41.00
2023-04-09T03:09:54.067Z,67.80
2023-04-09T03:14:17.034Z,68.70
2023-04-09T03:18:43.546Z,52.30
2023-04-09T03:23:04.222Z,60.10
2023-04-09T03:27:26.878Z,55.20
2023-04-09T03:31:47.988Z,59.20
2023-04-09T03:35:58.919Z,61.50
2023-04-09T03:40:18.867Z,55.90
2023-04-09T03:44:49.849Z,50.10
2023-04-09T03:49:11.011Z,54.30
2023-04-09T03:53:19.595Z,55.40
2023-04-09T03:57:43.594Z,56.00
2023-04-09T04:02:11.008Z,56.70
2023-04-09T04:06:24.943Z,54.10
2023-04-09T04:10:32.715Z,54.00
2023-04-09T04:14:58.875Z,47.00
2023-04-09T04:19:23.904Z,48.90
2023-04-09T04:23:33.374Z,45.50
2023-04-09T04:27:32.874Z,41.90
2023-04-09T04:31:40.087Z,42.30
2023-04-09T04:35:40.504Z,38.20
2023-04-09T04:40:03.025Z,41.70
2023-04-09T04:44:29.478Z,44.80
2023-04-09T04:48:52.970Z,42.90
2023-04-09T04:52:56.142Z,42.30
2023-04-09T04:57:39.190Z,49.50
2023-04-09T05:01:49.839Z,48.10
2023-04-09T05:06:02.013Z,44.80
2023-04-09T05:10:15.055Z,26.90
2023-04-09T05:14:33.505Z,26.10
2023-04-09T05:18:56.571Z,26.30
2023-04-09T05:23:19.401Z,22.50
2023-04-09T05:27:21.906Z,27.10
2023-04-09T05:31:28.985Z,28.50
2023-04-09T05:35:33.755Z,33.60
2023-04-09T05:39:59.188Z,34.40
2023-04-09T05:44:18.843Z,32.60
2023-04-09T05:48:37.713Z,29.60
2023-04-09T05:52:57.863Z,44.30
2023-04-09T05:57:09.497Z,53.40
2023-04-09T06:01:51.940Z,45.80
2023-04-09T06:05:45.759Z,37.40
2023-04-09T06:10:07.867Z,45.80
2023-04-09T06:14:30.729Z,35.40
2023-04-09T06:18:54.474Z,36.20
2023-04-09T06:23:01.043Z,36.50
2023-04-09T06:27:23.585Z,38.60
2023-04-09T06:31:27.330Z,42.30
2023-04-09T06:35:34.647Z,43.40
2023-04-09T06:40:01.048Z,46.40
2023-04-09T06:44:06.139Z,49.20
2023-04-09T06:48:08.188Z,46.80
2023-04-09T06:52:11.489Z,47.60
2023-04-09T06:56:31.554Z,50.90
2023-04-09T07:00:49.336Z,45.80
2023-04-09T07:04:51.322Z,44.90
2023-04-09T07:08:23.922Z,45.60
2023-04-09T07:12:15.419Z,45.10
2023-04-09T07:15:41.754Z,40.40
2023-04-09T07:19:16.901Z,50.60
2023-04-09T07:23:14.998Z,45.50
2023-04-09T07:27:04.097Z,48.80
2023-04-09T07:30:20.192Z,40.60
2023-04-09T07:33:26.596Z,34.30
2023-04-09T07:36:45.544Z,33.70
2023-04-09T07:40:09.697Z,33.90
2023-04-09T07:43:17.425Z,33.40
2023-04-09T07:46:23.109Z,32.40
2023-04-09T07:49:48.456Z,28.30
2023-04-09T07:53:13.865Z,26.90
2023-04-09T07:56:30.272Z,28.20
2023-04-09T07:59:41.300Z,28.20
2023-04-09T08:03:04.938Z,27.00
2023-04-09T08:06:37.555Z,25.00
2023-04-09T08:09:59.231Z,28.20
2023-04-09T08:13:22.101Z,26.30
2023-04-09T08:16:59.436Z,27.50
2023-04-09T08:20:56.764Z,27.80
2023-04-09T08:24:19.289Z,24.90
2023-04-09T08:27:45.402Z,26.60
2023-04-09T08:31:17.479Z,31.10
2023-04-09T08:34:21.623Z,26.40
2023-04-09T08:37:51.183Z,24.50
2023-04-09T08:41:43.264Z,28.90
2023-04-09T08:45:26.675Z,25.10
2023-04-09T08:49:07.606Z,24.70
2023-04-09T08:52:38.812Z,28.40
2023-04-09T08:56:54.722Z,31.60
2023-04-09T09:04:24.305Z,22.40
2023-04-09T09:07:58.253Z,28.50
2023-04-09T09:12:18.327Z,21.10
2023-04-09T09:15:31.235Z,24.90
2023-04-09T09:19:12.560Z,23.30
2023-04-09T09:23:08.839Z,22.30
2023-04-09T09:26:51.055Z,22.80
2023-04-09T09:30:30.174Z,21.20
2023-04-09T09:34:16.419Z,23.10
2023-04-09T09:38:33.849Z,24.30
2023-04-09T09:42:12.725Z,23.20
2023-04-09T09:45:56.644Z,23.20
2023-04-09T09:49:23.172Z,23.10
2023-04-09T09:52:39.125Z,25.20
2023-04-09T09:56:18.167Z,25.10
2023-04-09T09:59:29.146Z,23.20
2023-04-09T10:03:13.378Z,20.80
2023-04-09T10:06:39.117Z,22.20
2023-04-09T10:10:31.524Z,13.90
2023-04-09T10:14:39.553Z,21.80
2023-04-09T10:18:40.689Z,24.30
2023-04-09T10:22:53.419Z,20.90
2023-04-09T10:27:04.135Z,25.20
2023-04-09T10:31:24.144Z,24.60
2023-04-09T10:35:49.558Z,22.00
2023-04-09T10:40:04.371Z,23.10
2023-04-09T10:44:48.283Z,22.40
2023-04-09T10:48:43.210Z,20.20
2023-04-09T10:52:54.938Z,20.60
2023-04-09T10:57:04.313Z,20.20
2023-04-09T11:00:29.299Z,23.50
2023-04-09T11:04:10.836Z,26.40
2023-04-09T11:08:06.379Z,22.70
2023-04-09T11:12:11.678Z,26.40
2023-04-09T11:16:24.318Z,22.80
2023-04-09T11:20:20.426Z,22.00
2023-04-09T11:23:55.877Z,22.60
2023-04-09T11:27:42.234Z,18.80
2023-04-09T11:31:39.216Z,27.20
2023-04-09T11:35:46.108Z,25.30
2023-04-09T11:39:36.826Z,40.40
2023-04-09T11:44:10.147Z,28.80
2023-04-09T11:48:30.054Z,28.30
2023-04-09T11:52:40.893Z,27.00
2023-04-09T12:00:53.073Z,22.40
2023-04-09T12:05:05.622Z,21.80
2023-04-09T12:08:36.051Z,27.10
2023-04-09T12:12:50.184Z,30.30
2023-04-09T12:16:54.237Z,22.20
2023-04-09T12:21:19.731Z,21.60
2023-04-09T12:25:42.087Z,16.90
2023-04-09T12:29:29.960Z,19.30
2023-04-09T12:33:31.767Z,21.00
2023-04-09T12:36:53.884Z,20.30
2023-04-09T12:41:18.109Z,19.50
2023-04-09T12:45:38.385Z,32.70
2023-04-09T12:49:46.760Z,29.10
2023-04-09T12:53:43.780Z,23.30
2023-04-09T12:57:49.905Z,32.90
2023-04-09T13:01:55.858Z,27.60
2023-04-09T13:05:57.652Z,28.70
2023-04-09T13:10:13.357Z,25.30
2023-04-09T13:14:41.907Z,22.90
2023-04-09T13:18:55.229Z,22.30
2023-04-09T13:22:30.931Z,23.70
2023-04-09T13:26:35.033Z,25.20
2023-04-09T13:30:36.126Z,25.60
2023-04-09T13:34:43.663Z,26.40
2023-04-09T13:38:52.418Z,20.60
2023-04-09T13:43:34.227Z,24.70
2023-04-09T13:51:13.824Z,25.00
2023-04-09T13:55:45.090Z,25.60
2023-04-09T13:59:23.919Z,22.10
2023-04-09T14:03:20.020Z,22.40
2023-04-09T14:06:58.281Z,24.60
2023-04-09T14:10:42.942Z,21.80
2023-04-09T14:14:37.494Z,21.00
2023-04-09T14:18:51.586Z,23.60
2023-04-09T14:22:52.784Z,23.00
2023-04-09T14:26:44.109Z,24.10
2023-04-09T14:38:33.342Z,30.50
2023-04-09T14:42:37.428Z,30.50
2023-04-09T14:46:07.939Z,31.40
2023-04-09T14:49:46.147Z,19.70
2023-04-09T14:53:51.731Z,21.30
2023-04-09T14:57:55.540Z,28.40
2023-04-09T15:02:33.191Z,37.30
2023-04-09T15:06:40.457Z,37.10
2023-04-09T15:10:33.984Z,30.80
2023-04-09T15:14:42.119Z,28.40
2023-04-09T15:18:47.257Z,28.30
2023-04-09T15:23:11.748Z,32.00
2023-04-09T15:26:53.518Z,29.10
2023-04-09T15:30:57.594Z,26.90
2023-04-09T15:34:38.991Z,19.40
2023-04-09T15:38:46.424Z,20.50
2023-04-09T15:42:55.410Z,31.50
2023-04-09T15:47:00.459Z,37.00
2023-04-09T15:51:26.648Z,31.90
2023-04-09T15:55:51.253Z,35.20
2023-04-09T16:00:16.500Z,39.60
2023-04-09T16:04:47.524Z,42.70
2023-04-09T16:08:27.151Z,42.80
2023-04-09T16:12:35.106Z,45.00
2023-04-09T16:16:56.305Z,37.10
2023-04-09T16:21:05.769Z,41.40
2023-04-09T16:25:15.498Z,38.80
2023-04-09T16:29:55.075Z,43.60
2023-04-09T16:34:20.680Z,41.20
2023-04-09T16:39:04.584Z,42.60
2023-04-09T16:43:50.204Z,47.90
2023-04-09T16:47:56.499Z,44.30
2023-04-09T16:52:35.620Z,43.20
2023-04-09T16:57:07.203Z,37.40
2023-04-09T17:01:52.218Z,38.40
2023-04-09T17:06:06.200Z,38.70
2023-04-09T17:10:31.168Z,48.20
2023-04-09T17:14:38.967Z,34.20
2023-04-09T17:18:47.076Z,37.00
2023-04-09T17:23:19.066Z,39.00
2023-04-09T17:28:03.009Z,33.20
2023-04-09T17:32:31.436Z,37.60
2023-04-09T17:43:22.904Z,50.20
2023-04-09T17:47:26.708Z,34.10
2023-04-09T17:51:59.328Z,50.00
2023-04-09T17:56:49.552Z,28.60
2023-04-09T18:01:28.920Z,30.80
2023-04-09T18:11:05.122Z,19.00
2023-04-09T18:15:20.263Z,26.30
2023-04-09T18:19:31.795Z,65.20
2023-04-09T18:23:57.173Z,34.20
2023-04-09T18:28:39.003Z,35.60
2023-04-09T18:33:00.307Z,21.40
2023-04-09T18:41:50.619Z,35.10
2023-04-09T18:46:15.508Z,38.40
2023-04-09T18:50:41.554Z,82.60
2023-04-09T18:55:26.374Z,40.40
2023-04-09T18:59:54.519Z,36.60
2023-04-09T19:04:20.346Z,36.10
2023-04-09T19:08:38.698Z,38.80
2023-04-09T19:12:47.408Z,35.10
2023-04-09T19:17:16.557Z,45.70
2023-04-09T19:21:40.586Z,45.50
2023-04-09T19:25:48.529Z,41.70
2023-04-09T19:30:33.420Z,51.60
2023-04-09T19:38:55.508Z,45.40
2023-04-09T19:43:07.385Z,47.10
2023-04-09T19:47:42.815Z,46.30
2023-04-09T19:51:57.119Z,42.90
2023-04-09T19:56:01.600Z,40.40
2023-04-09T20:00:29.664Z,40.50
2023-04-09T20:04:34.398Z,58.40
2023-04-09T20:08:59.312Z,43.20
2023-04-09T20:13:32.386Z,40.80
2023-04-09T20:17:56.309Z,54.50
2023-04-09T20:22:11.965Z,60.10
2023-04-09T20:26:33.210Z,59.60
2023-04-09T20:30:42.890Z,61.20
2023-04-09T20:35:22.001Z,55.30
2023-04-09T20:43:35.647Z,57.60
2023-04-09T20:47:56.229Z,51.60
2023-04-09T20:52:12.364Z,51.80
2023-04-09T20:56:24.208Z,52.00
2023-04-09T21:00:52.439Z,52.40
2023-04-09T21:05:24.523Z,52.90
2023-04-09T21:09:56.290Z,52.90
2023-04-09T21:14:20.506Z,54.60
2023-04-09T21:19:00.251Z,51.40
2023-04-09T21:27:53.925Z,53.60
2023-04-09T21:32:33.336Z,52.30
2023-04-09T21:43:32.477Z,36.20
2023-04-09T21:48:17.001Z,41.20
2023-04-09T21:52:48.930Z,32.00
2023-04-09T21:57:03.172Z,37.60
2023-04-09T22:01:29.800Z,36.00
2023-04-09T22:05:46.737Z,43.20
2023-04-09T22:09:59.422Z,43.20
2023-04-09T22:14:43.854Z,39.80
2023-04-09T22:23:00.774Z,54.90
2023-04-09T22:27:07.451Z,41.50
2023-04-09T22:31:28.736Z,36.90
2023-04-09T22:36:00.877Z,42.80
2023-04-09T22:40:16.220Z,45.80
2023-04-09T22:44:20.407Z,50.40
2023-04-09T22:48:28.640Z,41.30
2023-04-09T22:52:51.478Z,40.60
2023-04-09T22:57:15.734Z,35.30
2023-04-09T23:01:36.453Z,42.90
2023-04-09T23:05:43.646Z,37.80
2023-04-09T23:13:26.547Z,42.20
2023-04-09T23:21:48.936Z,40.20
2023-04-09T23:25:57.293Z,27.00
2023-04-09T23:30:23.665Z,36.40
2023-04-09T23:35:08.636Z,36.50
2023-04-09T23:39:14.318Z,44.10
2023-04-09T23:43:40.627Z,41.10
2023-04-09T23:48:06.291Z,39.50
2023-04-09T23:52:29.891Z,36.10
2023-04-09T23:56:37.203Z,42.90
